(°C)
17°
17°
18°
19°
20°
22°
22°
(°C)
16°
16°
17°
18°
20°
21°
22°
BGB
BGB
B
B
B
D
KD
(km/saat)
5-6
4-6
5-6
5-7
3-8
4-7
6-11
(mm)
0
0
0
0
0
0
0
(%)
1
2
3
3
12
21
56

Güneşin açısı

/ 0.5°
sun-icon
UV 5
05:21
21:15
Artan Yarımay (60°)
10:25
00:04

İnnsbruck (LOWI) için METAR

Zaman Koşullar Sıcaklık/
Çiy noktası
Rüzgar Görünürlük Hava Bulutlar Basınç Değiştir Ham
VFR 17°C / 16°C 270º 5kt >10km - Few Clouds 12000ft 1022 - LOWI 040250Z AUTO 27005KT 9999 FEW120 17/16 Q1022
VFR 18°C / 16°C 290º variable 230º to 360º 3kt >10km - Few Clouds 2600ft 1022 - LOWI 040220Z AUTO 29003KT 230V360 9999 FEW026 18/16 Q1022
VFR 18°C / 16°C 330º variable 280º to 010º 9kt >10km Light Showers Rain 3.00mm precipitation Vertical Visibility of 0ft.
Scattered Clouds 5000ft
Broken Clouds 9000ft
1022 - LOWI 040150Z AUTO 33009KT 280V010 9999 -SHRA //////CB FEW028 SCT050 BKN090 18/16 Q1022 RERA
VFR 20°C / 15°C 250º 17kt Gust 28kt >10km Light Rain in the Vicinity Thunderstorm 1.00mm precipitation Vertical Visibility of 0ft.
Broken Clouds 8000ft
1022 - LOWI 040120Z AUTO 25017G28KT 9999 -RA VCTS //////CB FEW070 BKN080 20/15 Q1022
VFR 23°C / 12°C 280º variable 260º to 320º 24kt Gust 34kt >10km Light Thunderstorm Rain 3.00mm precipitation Vertical Visibility of 0ft.
Broken Clouds 7000ft
1020 - LOWI 040050Z AUTO 28024G34KT 260V320 9999 -TSRA //////CB FEW015 BKN070 23/12 Q1020 RESHRA
VFR 20°C / 15°C variable 4kt >10km Light Showers Rain 3.00mm precipitation Vertical Visibility of 0ft.
Broken Clouds 12000ft
1020 - LOWI 040020Z AUTO VRB04KT 9999 -SHRA //////CB FEW070 BKN120 20/15 Q1020
VFR 20°C / 15°C 260º 6kt >10km - Few Clouds 12000ft 1020 - LOWI 032350Z AUTO 26006KT 9999 //////CB FEW120 20/15 Q1020
VFR 19°C / 15°C variable 2kt >10km - Clear 1019 - LOWI 032320Z AUTO VRB02KT 9999 NSC 19/15 Q1019
VFR 20°C / 15°C variable 3kt >10km - Clear 1019 - LOWI 032250Z AUTO VRB03KT 9999 NSC 20/15 Q1019
VFR 20°C / 15°C 30º variable 360º to 130º 4kt >10km - Clear 1019 - LOWI 032220Z AUTO 03004KT 360V130 9999 NSC 20/15 Q1019
VFR 20°C / 15°C variable 2kt >10km - Clear 1019 - LOWI 032150Z AUTO VRB02KT 9999 NSC 20/15 Q1019
VFR 21°C / 15°C 230º variable 130º to 270º 3kt >10km - Clear 1019 - LOWI 032120Z AUTO 23003KT 130V270 9999 NSC 21/15 Q1019
VFR 21°C / 15°C 100º variable 060º to 150º 3kt >10km - Clouds and Visibility OK 1019 No Significant change LOWI 032050Z 10003KT 060V150 CAVOK 21/15 Q1019 NOSIG
VFR 22°C / 15°C variable 2kt >10km - Clouds and Visibility OK 1019 No Significant change LOWI 032020Z VRB02KT CAVOK 22/15 Q1019 NOSIG
VFR 23°C / 15°C variable 2kt >10km - Clouds and Visibility OK 1018 No Significant change LOWI 031950Z VRB02KT CAVOK 23/15 Q1018 NOSIG
VFR 24°C / 15°C variable 2kt >10km - Few Clouds 8000ft 1018 No Significant change LOWI 031920Z VRB02KT 9999 FEW080 24/15 Q1018 NOSIG
VFR 26°C / 15°C 90º variable 010º to 120º 6kt >10km - Few Clouds 8000ft 1018 No Significant change LOWI 031850Z 09006KT 010V120 9999 FEW080 26/15 Q1018 NOSIG
VFR 27°C / 15°C 90º 6kt >10km - Few Clouds 8000ft 1018 No Significant change LOWI 031820Z 09006KT 9999 FEW080 27/15 Q1018 NOSIG
VFR 27°C / 15°C 70º 8kt >10km - Few Clouds 8000ft 1018 No Significant change LOWI 031750Z 07008KT 9999 FEW080 27/15 Q1018 NOSIG
VFR 29°C / 14°C 70º 10kt >10km - Few Clouds 8000ft 1018 No Significant change LOWI 031720Z 07010KT 9999 FEW080 29/14 Q1018 NOSIG
VFR 30°C / 14°C 80º 10kt >10km - Few Clouds 8000ft 1018 No Significant change LOWI 031650Z 08010KT 9999 FEW080 30/14 Q1018 NOSIG
VFR 30°C / 13°C 80º 10kt >10km - Few Clouds 8000ft 1018 No Significant change LOWI 031620Z 08010KT 9999 FEW080 30/13 Q1018 NOSIG
VFR 30°C / 15°C 60º 10kt >10km - Few Clouds 8000ft 1018 No Significant change LOWI 031550Z 06010KT 9999 FEW080 30/15 Q1018 NOSIG
VFR 31°C / 13°C 70º 10kt >10km - Few Clouds 8000ft 1018 No Significant change LOWI 031520Z 07010KT 9999 FEW080 31/13 Q1018 NOSIG

VFR

17°C / 16°C

[Daha fazla]
Rüzgar 270º 5kt
Görünürlük >10km
Hava -
Bulutlar Few Clouds 12000ft
Basınç 1022
Değiştir -
Ham LOWI 040250Z AUTO 27005KT 9999 FEW120 17/16 Q1022

VFR

18°C / 16°C

[Daha fazla]
Rüzgar 290º variable 230º to 360º 3kt
Görünürlük >10km
Hava -
Bulutlar Few Clouds 2600ft
Basınç 1022
Değiştir -
Ham LOWI 040220Z AUTO 29003KT 230V360 9999 FEW026 18/16 Q1022

VFR

18°C / 16°C

[Daha fazla]
Rüzgar 330º variable 280º to 010º 9kt
Görünürlük >10km
Hava Light Showers Rain 3.00mm precipitation
Bulutlar Vertical Visibility of 0ft.
Scattered Clouds 5000ft
Broken Clouds 9000ft
Basınç 1022
Değiştir -
Ham LOWI 040150Z AUTO 33009KT 280V010 9999 -SHRA //////CB FEW028 SCT050 BKN090 18/16 Q1022 RERA

VFR

20°C / 15°C

[Daha fazla]
Rüzgar 250º 17kt Gust 28kt
Görünürlük >10km
Hava Light Rain in the Vicinity Thunderstorm 1.00mm precipitation
Bulutlar Vertical Visibility of 0ft.
Broken Clouds 8000ft
Basınç 1022
Değiştir -
Ham LOWI 040120Z AUTO 25017G28KT 9999 -RA VCTS //////CB FEW070 BKN080 20/15 Q1022

VFR

23°C / 12°C

[Daha fazla]
Rüzgar 280º variable 260º to 320º 24kt Gust 34kt
Görünürlük >10km
Hava Light Thunderstorm Rain 3.00mm precipitation
Bulutlar Vertical Visibility of 0ft.
Broken Clouds 7000ft
Basınç 1020
Değiştir -
Ham LOWI 040050Z AUTO 28024G34KT 260V320 9999 -TSRA //////CB FEW015 BKN070 23/12 Q1020 RESHRA

VFR

20°C / 15°C

[Daha fazla]
Rüzgar variable 4kt
Görünürlük >10km
Hava Light Showers Rain 3.00mm precipitation
Bulutlar Vertical Visibility of 0ft.
Broken Clouds 12000ft
Basınç 1020
Değiştir -
Ham LOWI 040020Z AUTO VRB04KT 9999 -SHRA //////CB FEW070 BKN120 20/15 Q1020

VFR

20°C / 15°C

[Daha fazla]
Rüzgar 260º 6kt
Görünürlük >10km
Hava -
Bulutlar Few Clouds 12000ft
Basınç 1020
Değiştir -
Ham LOWI 032350Z AUTO 26006KT 9999 //////CB FEW120 20/15 Q1020

VFR

19°C / 15°C

[Daha fazla]
Rüzgar variable 2kt
Görünürlük >10km
Hava -
Bulutlar Clear
Basınç 1019
Değiştir -
Ham LOWI 032320Z AUTO VRB02KT 9999 NSC 19/15 Q1019

VFR

20°C / 15°C

[Daha fazla]
Rüzgar variable 3kt
Görünürlük >10km
Hava -
Bulutlar Clear
Basınç 1019
Değiştir -
Ham LOWI 032250Z AUTO VRB03KT 9999 NSC 20/15 Q1019

VFR

20°C / 15°C

[Daha fazla]
Rüzgar 30º variable 360º to 130º 4kt
Görünürlük >10km
Hava -
Bulutlar Clear
Basınç 1019
Değiştir -
Ham LOWI 032220Z AUTO 03004KT 360V130 9999 NSC 20/15 Q1019

VFR

20°C / 15°C

[Daha fazla]
Rüzgar variable 2kt
Görünürlük >10km
Hava -
Bulutlar Clear
Basınç 1019
Değiştir -
Ham LOWI 032150Z AUTO VRB02KT 9999 NSC 20/15 Q1019

VFR

21°C / 15°C

[Daha fazla]
Rüzgar 230º variable 130º to 270º 3kt
Görünürlük >10km
Hava -
Bulutlar Clear
Basınç 1019
Değiştir -
Ham LOWI 032120Z AUTO 23003KT 130V270 9999 NSC 21/15 Q1019

VFR

21°C / 15°C

[Daha fazla]
Rüzgar 100º variable 060º to 150º 3kt
Görünürlük >10km
Hava -
Bulutlar Clouds and Visibility OK
Basınç 1019
Değiştir No Significant change
Ham LOWI 032050Z 10003KT 060V150 CAVOK 21/15 Q1019 NOSIG

VFR

22°C / 15°C

[Daha fazla]
Rüzgar variable 2kt
Görünürlük >10km
Hava -
Bulutlar Clouds and Visibility OK
Basınç 1019
Değiştir No Significant change
Ham LOWI 032020Z VRB02KT CAVOK 22/15 Q1019 NOSIG

VFR

23°C / 15°C

[Daha fazla]
Rüzgar variable 2kt
Görünürlük >10km
Hava -
Bulutlar Clouds and Visibility OK
Basınç 1018
Değiştir No Significant change
Ham LOWI 031950Z VRB02KT CAVOK 23/15 Q1018 NOSIG

VFR

24°C / 15°C

[Daha fazla]
Rüzgar variable 2kt
Görünürlük >10km
Hava -
Bulutlar Few Clouds 8000ft
Basınç 1018
Değiştir No Significant change
Ham LOWI 031920Z VRB02KT 9999 FEW080 24/15 Q1018 NOSIG

VFR

26°C / 15°C

[Daha fazla]
Rüzgar 90º variable 010º to 120º 6kt
Görünürlük >10km
Hava -
Bulutlar Few Clouds 8000ft
Basınç 1018
Değiştir No Significant change
Ham LOWI 031850Z 09006KT 010V120 9999 FEW080 26/15 Q1018 NOSIG

VFR

27°C / 15°C

[Daha fazla]
Rüzgar 90º 6kt
Görünürlük >10km
Hava -
Bulutlar Few Clouds 8000ft
Basınç 1018
Değiştir No Significant change
Ham LOWI 031820Z 09006KT 9999 FEW080 27/15 Q1018 NOSIG

VFR

27°C / 15°C

[Daha fazla]
Rüzgar 70º 8kt
Görünürlük >10km
Hava -
Bulutlar Few Clouds 8000ft
Basınç 1018
Değiştir No Significant change
Ham LOWI 031750Z 07008KT 9999 FEW080 27/15 Q1018 NOSIG

VFR

29°C / 14°C

[Daha fazla]
Rüzgar 70º 10kt
Görünürlük >10km
Hava -
Bulutlar Few Clouds 8000ft
Basınç 1018
Değiştir No Significant change
Ham LOWI 031720Z 07010KT 9999 FEW080 29/14 Q1018 NOSIG

VFR

30°C / 14°C

[Daha fazla]
Rüzgar 80º 10kt
Görünürlük >10km
Hava -
Bulutlar Few Clouds 8000ft
Basınç 1018
Değiştir No Significant change
Ham LOWI 031650Z 08010KT 9999 FEW080 30/14 Q1018 NOSIG

VFR

30°C / 13°C

[Daha fazla]
Rüzgar 80º 10kt
Görünürlük >10km
Hava -
Bulutlar Few Clouds 8000ft
Basınç 1018
Değiştir No Significant change
Ham LOWI 031620Z 08010KT 9999 FEW080 30/13 Q1018 NOSIG

VFR

30°C / 15°C

[Daha fazla]
Rüzgar 60º 10kt
Görünürlük >10km
Hava -
Bulutlar Few Clouds 8000ft
Basınç 1018
Değiştir No Significant change
Ham LOWI 031550Z 06010KT 9999 FEW080 30/15 Q1018 NOSIG

VFR

31°C / 13°C

[Daha fazla]
Rüzgar 70º 10kt
Görünürlük >10km
Hava -
Bulutlar Few Clouds 8000ft
Basınç 1018
Değiştir No Significant change
Ham LOWI 031520Z 07010KT 9999 FEW080 31/13 Q1018 NOSIG

İnnsbruck (LOWI) için TAF

From till


Maximum Temperature 24ºC on . Minimum Temperature 16ºC on .
From till Wind 270º 5kt. Visibility 10km or more. Few Clouds 7000ft.
Temporarly from till Wind 290º 20kt. Gust 30kt. Visibility 4000m. Thunderstorm Rain Showers Rain . Scattered Clouds 7000ft.
Temporarly from till Few Clouds 7000ft.
Becoming from till Wind 80º 8kt. Visibility 10km or more. Few Clouds 5000ft. Scattered Clouds 6000ft.
Temporarly from till Wind 270º 15kt. Gust 35kt. Visibility 4000m. Thunderstorm Rain . Scattered Clouds 5000ft. Broken Clouds 6000ft.

Ham: TAF AMD LOWI 040031Z 0400/0424 27005KT 9999 FEW070 TX24/0413Z TN16/0424Z TEMPO 0400/0408 FEW070CB TEMPO 0400/0404 29020G30KT 4000 TSRA SHRA SCT070CB BECMG 0408/0410 08008KT FEW050CB SCT060 TEMPO 0410/0424 27015G35KT 4000 TSRA SCT050CB BKN060

İnnsbruck için Radar

Çise
Hafif
Orta
Ağır
Çok ağır
Dolu

Konum işaretleyicisi İnnsbruck üzerine yerleştirilir. Bu animasyon son saat içerisindeki yağış radarını ve 2h tahminini gösterir. Hafif yağmur veya kar yağışı radar için görünmez olabilir. Yağış şiddeti açık mavi ile koyu mor arasındaki renklerle kodlanmıştır.
Copyright 2022 Deutscher Wetterdienst / meteoblue.

İnnsbruck için şu anki uydu ve yağmur görüntüleri, Avusturya

Konum işaretleyici İnnsbruck üzerine yerleştirilir. [Daha fazla]

Gerçek zamanlı uydu görüntüsü gündüz süresince görülür ışığı gece süresince kızılötesi ışınım ile birleştirir. Gece kızılötesi ışınım sıcaklık farklarını algılayabildiğinden dolayı görüntü karanlık değildir. Ancak düşük bulutları ve sisi yer sıcaklığından ayırmak zordur ve bu nedenle gece boyunca neredeyse görünmez olabilirler. Avrupa için Meteosat uydu görüntüleri gerçek zamanlı olarak her 5 dakikada bir güncellenir. GOES-16/GOES-17 (Kuzey ve Güney Amerika) ve Himawari (Asya) görüntüleri her 10 dakikada bir güncellenir.

Yağış radar ve uydudan tahmin edilir. Uydulardan gece yapılan yağış tahminleri gündüz yapılan tahminlere göre daha az kusursuzdur. Turuncu çarpılar şimşeklerin saptandığı yerleri gösterir (Avrupa üzeri).

Copyright 2022 EUMETSAT / meteoblue. nowcast tarafından sağlanan şimşek verileri.

En başa git